Time;durP1;ratioP1;P1;durP2;ratioP2;P2;SDS_P1;SDS_P2;PMS_P1;PMS_P2;Temp;Humidity;BMP_temperature;BMP_pressure;BME280_temperature;BME280_humidity;BME280_pressure;Samples;Min_cycle;Max_cycle;Signal;HPM_P1;HPM_P2
2021/11/09 00:02:05;;;;;;;19.80;9.85;;;;;;;8.08;92.26;101383.13;5015759;28;20053;-54
2021/11/09 00:04:37;;;;;;;19.40;9.73;;;;;;;8.06;92.55;101377.03;5014079;28;20053;-53
2021/11/09 00:07:27;;;;;;;23.67;9.55;;;;;;;8.06;92.59;101386.69;5024285;28;20111;-53
2021/11/09 00:09:57;;;;;;;21.77;9.77;;;;;;;7.92;92.36;101379.06;5028781;28;20123;-51
2021/11/09 00:12:34;;;;;;;20.85;9.63;;;;;;;7.83;93.10;101379.28;5026027;28;20156;-52
2021/11/09 00:15:03;;;;;;;21.20;10.15;;;;;;;7.74;93.57;101377.69;5019699;28;20068;-54
2021/11/09 00:17:30;;;;;;;20.77;10.25;;;;;;;7.66;93.51;101381.38;5026347;28;20111;-53
2021/11/09 00:19:57;;;;;;;23.73;10.48;;;;;;;7.59;94.34;101390.28;5023798;28;20041;-54
2021/11/09 00:22:25;;;;;;;23.13;10.30;;;;;;;7.50;95.10;101385.19;5025239;28;20079;-51
2021/11/09 00:24:52;;;;;;;27.58;10.45;;;;;;;7.49;95.38;101383.47;5018113;28;20041;-52
2021/11/09 00:27:20;;;;;;;21.60;10.23;;;;;;;7.45;95.55;101380.00;5026363;28;20080;-53
2021/11/09 00:29:47;;;;;;;19.50;10.43;;;;;;;7.40;95.80;101398.53;5024230;28;20441;-53
2021/11/09 00:32:16;;;;;;;20.27;10.15;;;;;;;7.34;96.07;101385.47;5022496;28;20128;-51
2021/11/09 00:34:46;;;;;;;23.42;10.80;;;;;;;7.32;96.16;101389.03;5014700;28;20136;-51
2021/11/09 00:37:13;;;;;;;22.77;10.90;;;;;;;7.23;96.18;101387.44;5025623;28;20566;-51
2021/11/09 00:39:41;;;;;;;20.17;10.20;;;;;;;7.21;96.62;101389.22;5026224;28;20255;-52
2021/11/09 00:42:09;;;;;;;24.42;10.57;;;;;;;7.12;97.03;101373.56;5019301;28;20041;-52
2021/11/09 00:44:37;;;;;;;20.73;10.55;;;;;;;7.21;96.60;101397.13;5016231;28;20125;-52
2021/11/09 00:47:04;;;;;;;22.17;10.80;;;;;;;7.15;97.02;101389.31;5026777;28;20129;-51
2021/11/09 00:49:31;;;;;;;21.63;11.02;;;;;;;7.10;97.25;101393.78;5020891;28;20073;-51
2021/11/09 00:51:59;;;;;;;22.85;11.32;;;;;;;7.06;97.21;101400.03;5025160;28;20148;-53
2021/11/09 00:54:25;;;;;;;24.52;11.20;;;;;;;6.94;97.46;101389.66;5013099;28;20041;-53
2021/11/09 00:56:52;;;;;;;20.48;11.32;;;;;;;6.98;97.63;101408.03;5022371;28;20046;-53
2021/11/09 00:59:18;;;;;;;26.02;11.95;;;;;;;6.92;98.05;101405.53;5023264;28;20091;-52
2021/11/09 01:01:46;;;;;;;22.48;11.90;;;;;;;6.88;97.99;101405.59;5015095;28;20141;-53
2021/11/09 01:04:12;;;;;;;26.15;11.75;;;;;;;6.81;98.57;101407.44;4981158;28;20046;-53
2021/11/09 01:06:39;;;;;;;20.95;11.02;;;;;;;6.82;98.39;101410.94;5003006;28;20049;-52
2021/11/09 01:09:06;;;;;;;25.88;12.13;;;;;;;6.79;98.86;101410.97;5006008;28;20073;-53
2021/11/09 01:11:34;;;;;;;23.27;11.10;;;;;;;6.75;98.56;101422.47;5006173;28;20273;-51
2021/11/09 01:14:02;;;;;;;22.40;11.55;;;;;;;6.65;98.72;101417.31;4991547;28;20038;-54
2021/11/09 01:16:29;;;;;;;22.52;11.98;;;;;;;6.54;98.87;101402.59;5005367;28;20143;-52
2021/11/09 01:18:58;;;;;;;22.35;11.98;;;;;;;6.47;99.49;101414.06;5001691;28;20129;-53
2021/11/09 01:21:25;;;;;;;21.13;10.93;;;;;;;6.47;99.44;101414.06;5004297;28;20140;-54
2021/11/09 01:23:54;;;;;;;20.48;11.40;;;;;;;6.42;99.28;101416.78;4996188;28;20046;-52
2021/11/09 01:26:22;;;;;;;21.48;11.20;;;;;;;6.37;99.60;101407.22;5003061;28;20042;-51
2021/11/09 01:28:52;;;;;;;25.00;11.90;;;;;;;6.32;99.67;101415.16;5005995;28;20084;-51
2021/11/09 01:31:20;;;;;;;25.85;11.30;;;;;;;6.27;99.97;101420.50;5006532;28;20133;-52
2021/11/09 01:33:49;;;;;;;27.98;11.70;;;;;;;6.20;99.97;101416.19;4993797;28;20173;-52
2021/11/09 01:36:16;;;;;;;25.02;12.07;;;;;;;6.16;100.00;101418.88;5006191;28;20046;-53
2021/11/09 01:38:43;;;;;;;24.13;11.95;;;;;;;6.12;100.00;101409.31;5006636;28;20108;-51
2021/11/09 01:41:10;;;;;;;23.48;12.10;;;;;;;6.10;100.00;101414.56;5007472;28;20048;-51
2021/11/09 01:43:38;;;;;;;26.08;12.25;;;;;;;6.10;100.00;101416.34;4997674;28;20043;-54
2021/11/09 01:46:06;;;;;;;24.15;12.02;;;;;;;6.07;100.00;101413.72;5004285;28;20138;-53
2021/11/09 01:48:34;;;;;;;25.23;11.57;;;;;;;6.05;100.00;101412.88;5005665;28;20045;-54
2021/11/09 01:51:06;;;;;;;26.77;12.77;;;;;;;5.98;100.00;101412.94;5009735;28;20097;-52
2021/11/09 01:53:34;;;;;;;24.80;12.13;;;;;;;5.91;100.00;101406.03;5005798;28;20068;-52
2021/11/09 01:56:06;;;;;;;23.35;11.82;;;;;;;5.90;100.00;101413.94;5005856;28;20046;-53
2021/11/09 01:58:33;;;;;;;24.27;11.57;;;;;;;5.89;100.00;101410.44;5011893;28;20074;-53
2021/11/09 02:01:05;;;;;;;23.88;12.50;;;;;;;5.87;100.00;101414.81;5012656;28;20504;-53
2021/11/09 02:03:33;;;;;;;25.38;12.75;;;;;;;5.87;100.00;101411.31;4998351;28;20037;-53
2021/11/09 02:06:01;;;;;;;23.70;11.85;;;;;;;5.85;100.00;101413.94;5010510;28;20061;-52
2021/11/09 02:08:28;;;;;;;25.90;12.40;;;;;;;5.83;100.00;101415.72;5012897;28;20140;-54
2021/11/09 02:10:55;;;;;;;26.10;11.93;;;;;;;5.79;100.00;101423.69;5009501;28;20062;-52
2021/11/09 02:13:23;;;;;;;25.25;11.85;;;;;;;5.76;100.00;101418.44;4999727;28;20100;-53
2021/11/09 02:15:51;;;;;;;25.83;11.50;;;;;;;5.73;100.00;101413.22;5002568;28;20132;-54
2021/11/09 02:18:19;;;;;;;22.42;11.63;;;;;;;5.71;100.00;101410.59;5008990;28;20147;-52
2021/11/09 02:20:57;;;;;;;24.92;12.27;;;;;;;5.70;100.00;101418.50;5004879;28;20657;-54
2021/11/09 02:23:25;;;;;;;20.10;11.57;;;;;;;5.57;100.00;101391.50;5002402;28;20662;-53
2021/11/09 02:25:52;;;;;;;25.90;11.55;;;;;;;5.67;100.00;101414.16;5003227;28;20045;-52
2021/11/09 02:28:19;;;;;;;26.60;12.07;;;;;;;5.60;100.00;101415.97;5007028;28;20112;-51
2021/11/09 02:30:46;;;;;;;23.08;11.98;;;;;;;5.44;100.00;101395.13;5009105;28;20042;-53
2021/11/09 02:33:13;;;;;;;25.67;13.60;;;;;;;5.57;100.00;101415.13;5000851;28;20084;-52
2021/11/09 02:35:40;;;;;;;24.77;12.85;;;;;;;5.48;100.00;101396.84;5000528;28;20046;-53
2021/11/09 02:38:07;;;;;;;28.70;12.80;;;;;;;5.59;100.00;101421.25;5007802;28;20487;-52
2021/11/09 02:40:34;;;;;;;20.52;12.25;;;;;;;5.55;100.00;101409.03;5004707;28;20628;-52
2021/11/09 02:43:06;;;;;;;24.90;13.25;;;;;;;5.54;100.00;101409.91;5001735;28;20050;-51
2021/11/09 02:46:03;;;;;;;25.15;12.75;;;;;;;5.54;100.00;101408.16;4991860;28;20046;-52
2021/11/09 02:48:33;;;;;;;23.77;12.82;;;;;;;5.54;100.00;101409.91;5002257;28;20045;-51
2021/11/09 02:51:06;;;;;;;28.13;13.15;;;;;;;5.56;100.00;101416.03;5008284;28;20135;-51
2021/11/09 02:53:40;;;;;;;22.40;13.20;;;;;;;5.54;100.00;101415.16;5003621;28;20092;-52
2021/11/09 02:56:15;;;;;;;25.20;13.80;;;;;;;5.54;100.00;101415.16;4997554;28;20124;-53
2021/11/09 02:58:48;;;;;;;26.45;13.25;;;;;;;5.52;100.00;101420.44;5005741;28;20251;-52
2021/11/09 03:06:45;;;;;;;28.05;13.73;;;;;;;5.54;100.00;101407.28;5003455;28;20045;-52
2021/11/09 03:09:16;;;;;;;19.48;12.82;;;;;;;5.54;100.00;101412.53;5007391;28;20042;-51
2021/11/09 03:11:55;;;;;;;;;;;;;;;5.53;100.00;101413.41;5005113;28;20049;-53
2021/11/09 03:14:24;;;;;;;26.67;12.77;;;;;;;5.52;100.00;101423.06;4998407;28;20268;-52
2021/11/09 03:16:52;;;;;;;24.90;12.95;;;;;;;5.46;100.00;101414.38;5005179;28;20046;-53
2021/11/09 03:46:36;;;;;;;24.92;11.35;;;;;;;5.22;100.00;101445.22;5005251;28;20045;-53
2021/11/09 03:49:06;;;;;;;25.30;12.30;;;;;;;5.17;100.00;101436.53;5004898;28;20076;-52
2021/11/09 03:51:34;;;;;;;20.70;12.02;;;;;;;5.11;100.00;101447.06;5008267;28;20045;-52
2021/11/09 03:54:04;;;;;;;22.25;12.65;;;;;;;4.90;100.00;101434.09;4996436;28;20047;-52
2021/11/09 03:56:38;;;;;;;21.13;12.38;;;;;;;4.84;100.00;101439.41;5001603;28;20049;-54
2021/11/09 03:59:10;;;;;;;23.73;12.80;;;;;;;4.89;100.00;101459.47;5006230;28;20410;-52
2021/11/09 04:01:48;;;;;;;24.23;11.90;;;;;;;4.82;100.00;101459.53;5003102;28;20045;-52
2021/11/09 04:04:33;;;;;;;21.98;13.07;;;;;;;4.78;100.00;101465.69;4994354;28;20124;-52
2021/11/09 04:15:30;;;;;;;22.00;11.88;;;;;;;4.67;100.00;101475.38;4995196;28;20037;-53
2021/11/09 04:45:40;;;;;;;21.13;12.75;;;;;;;4.44;100.00;101489.47;4999743;28;20061;-53
2021/11/09 04:50:23;;;;;;;22.05;12.18;;;;;;;4.42;100.00;101496.47;5000159;28;20049;-53
2021/11/09 05:09:10;;;;;;;18.75;12.07;;;;;;;4.29;100.00;101502.63;5002578;28;20387;-53
2021/11/09 05:11:38;;;;;;;20.40;12.48;;;;;;;4.28;100.00;101500.91;5000598;28;20037;-54
2021/11/09 05:14:10;;;;;;;20.08;11.75;;;;;;;4.24;100.00;101499.19;5000231;28;20046;-51
2021/11/09 05:16:39;;;;;;;24.52;11.93;;;;;;;4.23;100.00;101503.56;4993183;28;20042;-51
2021/11/09 05:19:07;;;;;;;21.45;11.18;;;;;;;4.21;100.00;101507.06;5003254;28;20056;-52
2021/11/09 05:21:34;;;;;;;19.55;11.43;;;;;;;4.16;100.00;101509.69;5008289;28;20046;-52
2021/11/09 05:24:02;;;;;;;21.80;11.50;;;;;;;4.15;100.00;101509.69;5009350;28;20061;-53
2021/11/09 05:26:28;;;;;;;20.42;12.35;;;;;;;4.16;100.00;101504.44;4999118;28;20530;-51
2021/11/09 05:28:55;;;;;;;19.67;11.63;;;;;;;4.13;100.00;101514.06;5010266;28;20038;-52
2021/11/09 05:31:22;;;;;;;21.17;11.85;;;;;;;4.10;100.00;101511.44;5012312;28;20046;-52
2021/11/09 05:33:52;;;;;;;21.08;12.38;;;;;;;4.11;100.00;101513.19;5002610;28;20038;-53
2021/11/09 05:36:19;;;;;;;20.13;11.98;;;;;;;4.12;100.00;101512.31;5001393;28;20072;-54
2021/11/09 05:41:34;;;;;;;19.88;11.35;;;;;;;4.12;100.00;101513.19;5010817;28;20049;-54
2021/11/09 05:44:00;;;;;;;22.88;12.25;;;;;;;4.10;100.00;101511.44;5006667;28;20045;-52
2021/11/09 05:46:27;;;;;;;20.52;11.77;;;;;;;4.05;100.00;101519.34;5001680;28;20057;-53
2021/11/09 05:48:53;;;;;;;19.83;12.23;;;;;;;4.06;100.00;101514.97;5011516;28;20068;-52
2021/11/09 05:51:20;;;;;;;24.35;12.27;;;;;;;4.05;100.00;101519.34;5007167;28;20046;-52
2021/11/09 05:53:47;;;;;;;19.13;11.43;;;;;;;4.03;100.00;101514.97;5013902;28;20084;-53
2021/11/09 05:56:14;;;;;;;18.20;11.68;;;;;;;4.05;100.00;101518.47;4996782;28;20045;-52
2021/11/09 05:58:40;;;;;;;20.33;12.25;;;;;;;4.04;100.00;101522.81;5007630;28;20049;-52
2021/11/09 06:01:07;;;;;;;21.17;12.25;;;;;;;3.85;100.00;101501.03;5009346;28;20053;-52
2021/11/09 06:03:33;;;;;;;18.27;11.88;;;;;;;3.99;100.00;101524.56;4994768;28;20477;-52
2021/11/09 06:06:00;;;;;;;20.17;12.05;;;;;;;3.96;100.00;101534.19;4998047;28;20046;-52
2021/11/09 06:08:26;;;;;;;22.52;12.05;;;;;;;3.92;100.00;101543.81;5010276;28;20046;-53
2021/11/09 06:10:57;;;;;;;19.75;11.88;;;;;;;3.87;100.00;101545.56;5007543;28;20085;-51
2021/11/09 06:13:23;;;;;;;22.60;12.13;;;;;;;3.84;100.00;101540.31;5009179;28;20422;-52
2021/11/09 06:15:50;;;;;;;25.67;12.48;;;;;;;3.83;100.00;101557.78;4994921;28;20043;-52
2021/11/09 06:18:16;;;;;;;21.75;11.98;;;;;;;3.82;100.00;101565.66;5002122;28;20039;-50
2021/11/09 06:20:43;;;;;;;21.13;11.30;;;;;;;3.80;100.00;101559.53;5008642;28;20537;-52
2021/11/09 06:23:09;;;;;;;20.80;12.18;;;;;;;3.78;100.00;101562.16;5008278;28;20045;-52
2021/11/09 06:25:36;;;;;;;18.52;11.95;;;;;;;3.75;100.00;101554.31;4996786;28;20503;-53
2021/11/09 06:28:05;;;;;;;21.33;11.95;;;;;;;3.67;100.00;101540.34;5006875;28;20058;-52
2021/11/09 06:30:33;;;;;;;19.02;12.02;;;;;;;3.77;100.00;101568.28;5008609;28;20383;-53
2021/11/09 06:33:00;;;;;;;17.83;12.23;;;;;;;3.79;100.00;101574.38;5006068;28;20045;-51
2021/11/09 06:35:27;;;;;;;19.98;12.13;;;;;;;3.77;100.00;101572.66;4997052;28;20054;-52
2021/11/09 06:37:55;;;;;;;19.17;12.15;;;;;;;3.75;100.00;101588.38;5005969;28;20064;-51
2021/11/09 06:40:21;;;;;;;20.45;12.18;;;;;;;3.75;100.00;101575.28;5008670;28;20045;-51
2021/11/09 06:42:48;;;;;;;22.52;12.00;;;;;;;3.70;100.00;101584.88;5004782;28;20048;-52
2021/11/09 06:45:15;;;;;;;20.45;12.50;;;;;;;3.66;100.00;101596.22;5001513;28;20510;-52
2021/11/09 06:47:42;;;;;;;16.23;11.57;;;;;;;3.66;100.00;101596.22;4998455;28;20046;-54
2021/11/09 06:50:10;;;;;;;18.50;11.73;;;;;;;3.68;100.00;101597.09;5006917;28;20048;-52
2021/11/09 06:52:37;;;;;;;19.10;11.65;;;;;;;3.71;100.00;101593.59;5009052;28;20042;-52
2021/11/09 06:55:06;;;;;;;20.73;12.25;;;;;;;3.70;100.00;101595.34;5001232;28;20510;-53
2021/11/09 06:57:40;;;;;;;17.60;11.75;;;;;;;3.71;100.00;101596.22;5006243;28;20117;-54
2021/11/09 07:00:11;;;;;;;16.50;11.20;;;;;;;3.72;100.00;101603.22;5008424;28;20049;-53
2021/11/09 07:02:38;;;;;;;16.85;11.35;;;;;;;3.75;100.00;101598.84;5005791;28;20076;-51
2021/11/09 07:05:05;;;;;;;15.57;10.30;;;;;;;3.80;100.00;101602.31;5003465;28;20534;-53
2021/11/09 07:07:32;;;;;;;15.50;10.25;;;;;;;3.88;100.00;101605.84;5001820;28;20046;-52
2021/11/09 07:09:58;;;;;;;14.70;10.32;;;;;;;3.86;100.00;101602.34;5008032;28;20057;-52
2021/11/09 07:12:27;;;;;;;12.82;9.27;;;;;;;3.88;100.00;101604.97;5006427;28;20060;-53
2021/11/09 07:14:54;;;;;;;14.05;9.45;;;;;;;3.88;100.00;101613.69;5009699;28;20053;-53
2021/11/09 07:17:21;;;;;;;13.85;9.20;;;;;;;3.84;100.00;101609.31;5002373;28;20046;-52
2021/11/09 07:19:51;;;;;;;13.68;9.63;;;;;;;3.88;100.00;101615.44;5007383;28;20403;-53
2021/11/09 07:22:19;;;;;;;12.95;9.30;;;;;;;3.86;100.00;101598.84;5014413;28;20056;-52
2021/11/09 07:24:47;;;;;;;14.77;9.55;;;;;;;4.04;100.00;101632.03;5005132;28;20495;-53
2021/11/09 07:27:13;;;;;;;16.10;9.27;;;;;;;4.05;100.00;101626.78;5002421;28;20037;-51
2021/11/09 07:29:45;;;;;;;14.45;9.60;;;;;;;3.96;100.00;101613.69;5010697;28;20068;-54
2021/11/09 07:32:11;;;;;;;11.95;8.50;;;;;;;4.13;100.00;101635.50;5010725;28;20503;-53
2021/11/09 07:34:39;;;;;;;12.00;8.80;;;;;;;4.17;100.00;101632.03;5002778;28;20045;-53
2021/11/09 07:37:06;;;;;;;12.85;8.65;;;;;;;4.24;100.00;101635.53;4999827;28;20100;-50
2021/11/09 07:39:33;;;;;;;14.23;9.18;;;;;;;4.32;100.00;101635.50;5006754;28;20046;-51
2021/11/09 07:42:06;;;;;;;16.27;9.23;;;;;;;4.45;100.00;101639.84;5004259;28;20054;-53
2021/11/09 07:44:33;;;;;;;13.80;9.27;;;;;;;4.42;100.00;101624.97;5008721;28;20046;-53
2021/11/09 07:46:59;;;;;;;13.82;9.27;;;;;;;4.68;100.00;101639.78;4998590;28;20048;-52
2021/11/09 07:49:27;;;;;;;14.52;8.98;;;;;;;4.66;100.00;101629.28;5006145;28;20052;-52
2021/11/09 07:51:54;;;;;;;16.23;9.82;;;;;;;4.84;100.00;101638.88;5007017;28;20057;-54
2021/11/09 07:54:24;;;;;;;14.55;9.68;;;;;;;4.98;100.00;101644.94;5007086;28;20447;-57
2021/11/09 07:57:00;;;;;;;12.15;7.53;;;;;;;5.17;100.00;101632.59;4997223;28;20080;-51
2021/11/09 08:02:06;;;;;;;13.13;8.63;;;;;;;5.87;100.00;101635.63;5005611;28;20487;-54
2021/11/09 08:04:44;;;;;;;16.02;8.85;;;;;;;6.23;100.00;101641.47;5002828;28;20060;-53
2021/11/09 08:07:52;;;;;;;12.38;7.97;;;;;;;6.54;98.13;101642.06;5042650;27;20189;-52
2021/11/09 08:10:10;;;;;;;12.13;7.75;;;;;;;6.78;94.93;101648.78;5016098;28;20041;-54
2021/11/09 08:12:36;;;;;;;13.48;7.05;;;;;;;7.09;90.47;101641.38;5013899;28;20054;-51
2021/11/09 08:15:03;;;;;;;9.98;7.40;;;;;;;7.15;90.97;101638.69;5014850;28;20087;-53
2021/11/09 08:17:30;;;;;;;11.57;7.13;;;;;;;7.29;88.75;101642.00;5012759;28;20049;-53
2021/11/09 08:19:56;;;;;;;16.52;7.85;;;;;;;7.47;87.72;101646.16;5012281;28;20041;-51
2021/11/09 08:22:23;;;;;;;12.00;7.05;;;;;;;7.58;88.84;101644.22;5008572;28;20050;-53
2021/11/09 08:24:50;;;;;;;11.43;7.60;;;;;;;7.70;87.77;101647.56;5017360;28;20492;-52
2021/11/09 08:27:17;;;;;;;11.38;7.60;;;;;;;7.82;85.04;101651.78;5004152;28;20050;-53
2021/11/09 08:29:49;;;;;;;11.95;7.40;;;;;;;7.90;84.20;101656.91;5014294;28;20358;-52
2021/11/09 08:32:16;;;;;;;13.95;7.80;;;;;;;7.86;85.88;101653.47;5010717;28;20046;-53
2021/11/09 08:34:43;;;;;;;16.75;8.20;;;;;;;7.74;86.28;101651.88;5007625;28;20042;-50
2021/11/09 08:37:09;;;;;;;12.15;7.40;;;;;;;7.58;86.07;101646.88;5005158;28;20045;-52
2021/11/09 08:39:38;;;;;;;13.40;7.80;;;;;;;7.46;87.22;101652.31;5017068;28;20053;-52
2021/11/09 08:42:13;;;;;;;13.43;7.18;;;;;;;7.42;87.67;101656.75;5014266;28;20133;-52
2021/11/09 08:45:31;;;;;;;13.65;8.10;;;;;;;7.46;89.10;101654.94;5009835;28;20146;-53
2021/11/09 08:47:32;;;;;;;16.77;7.95;;;;;;;7.45;88.73;101653.22;5010045;28;20052;-52
2021/11/09 08:49:58;;;;;;;20.00;9.20;;;;;;;7.50;88.58;101659.31;5012681;28;20046;-53
2021/11/09 08:52:27;;;;;;;16.88;9.05;;;;;;;7.55;88.57;101660.13;5022243;28;20072;-53
2021/11/09 08:58:11;;;;;;;16.10;8.88;;;;;;;7.71;88.02;101651.09;5008473;28;20046;-53
2021/11/09 09:06:03;;;;;;;15.48;8.23;;;;;;;8.51;83.04;101645.34;5016702;28;20054;-51
2021/11/09 09:08:32;;;;;;;13.40;8.13;;;;;;;8.86;83.17;101649.94;5024330;28;20113;-53
2021/11/09 09:10:59;;;;;;;14.02;8.18;;;;;;;9.12;79.50;101650.31;5034866;28;20049;-52
2021/11/09 09:13:26;;;;;;;16.50;8.50;;;;;;;9.29;78.39;101661.38;5027331;28;20041;-52
2021/11/09 09:15:54;;;;;;;18.35;8.38;;;;;;;9.40;77.24;101645.28;5028357;28;20037;-51
2021/11/09 09:18:22;;;;;;;17.52;8.95;;;;;;;9.63;77.16;101650.03;5015852;28;20049;-53
2021/11/09 09:20:55;;;;;;;16.45;8.90;;;;;;;9.79;76.05;101657.59;5024348;28;20114;-52
2021/11/09 09:23:30;;;;;;;16.58;8.05;;;;;;;9.96;74.11;101654.53;5018039;28;20391;-52
2021/11/09 09:53:26;;;;;;;20.77;9.40;;;;;;;9.94;73.72;101651.06;5013994;28;20058;-52
2021/11/09 09:55:59;;;;;;;15.43;8.98;;;;;;;9.84;73.69;101658.34;5012789;28;20502;-52
2021/11/09 09:58:25;;;;;;;20.08;9.70;;;;;;;9.73;74.17;101656.88;5014680;28;20172;-51
2021/11/09 10:00:53;;;;;;;16.20;8.80;;;;;;;9.68;75.49;101656.09;5021531;28;20038;-53
2021/11/09 10:03:38;;;;;;;20.35;10.02;;;;;;;9.66;76.69;101655.25;5017820;28;20497;-52
2021/11/09 10:06:06;;;;;;;17.60;9.50;;;;;;;9.62;76.57;101643.88;5016087;28;20069;-52
2021/11/09 10:08:41;;;;;;;17.88;9.48;;;;;;;9.60;77.55;101650.97;5013877;28;20133;-51
2021/11/09 10:11:25;;;;;;;19.50;9.68;;;;;;;9.54;77.67;101648.50;5013925;28;20053;-51
2021/11/09 10:13:52;;;;;;;17.95;9.73;;;;;;;9.60;77.94;101653.63;5011709;28;20038;-51
2021/11/09 10:16:18;;;;;;;23.40;10.43;;;;;;;9.64;77.70;101646.50;5010141;28;20050;-52
2021/11/09 10:18:45;;;;;;;16.40;9.82;;;;;;;9.59;76.99;101629.88;5012922;28;20042;-53
2021/11/09 10:21:12;;;;;;;17.02;9.45;;;;;;;9.64;77.44;101649.13;5011372;28;20050;-52
2021/11/09 10:23:40;;;;;;;16.63;10.35;;;;;;;9.66;78.00;101652.63;5013872;28;20045;-52
2021/11/09 10:26:16;;;;;;;22.73;10.38;;;;;;;9.75;77.21;101653.28;5013943;28;20061;-53
2021/11/09 10:28:44;;;;;;;16.58;9.98;;;;;;;9.78;77.66;101649.69;5009919;28;20134;-53
2021/11/09 10:31:15;;;;;;;16.48;9.82;;;;;;;9.86;77.18;101647.75;5015197;28;20057;-52
2021/11/09 10:33:45;;;;;;;21.30;9.93;;;;;;;9.94;76.33;101645.75;5017939;28;20042;-53
2021/11/09 10:36:24;;;;;;;16.53;9.30;;;;;;;10.01;75.54;101647.38;5011364;28;20451;-50
2021/11/09 10:38:50;;;;;;;18.17;8.95;;;;;;;10.10;72.76;101643.59;5014042;28;20136;-52
2021/11/09 10:41:18;;;;;;;18.35;8.65;;;;;;;10.15;71.99;101645.25;5009983;28;20042;-52
2021/11/09 10:43:46;;;;;;;15.90;8.48;;;;;;;10.15;71.27;101637.28;5010762;28;20046;-52
2021/11/09 10:46:28;;;;;;;16.13;8.63;;;;;;;10.18;71.20;101647.84;5015584;28;20058;-51
2021/11/09 10:48:55;;;;;;;17.80;8.25;;;;;;;10.11;71.51;101622.41;5008788;28;20042;-53
2021/11/09 10:51:21;;;;;;;16.23;8.50;;;;;;;10.25;69.79;101626.50;5014579;28;20060;-52
2021/11/09 10:53:54;;;;;;;14.35;7.63;;;;;;;10.27;69.77;101640.56;5016582;28;20046;-53
2021/11/09 11:05:20;;;;;;;16.98;8.02;;;;;;;10.41;69.16;101628.69;5014113;28;20062;-51
2021/11/09 11:07:51;;;;;;;15.35;7.88;;;;;;;10.32;68.92;101613.06;5004796;28;20060;-51
2021/11/09 11:10:32;;;;;;;16.25;8.70;;;;;;;10.51;68.72;101638.16;5016539;28;20129;-53
2021/11/09 11:13:17;;;;;;;19.15;9.00;;;;;;;10.51;68.38;101637.28;5013255;28;20503;-51
2021/11/09 11:16:07;;;;;;;14.63;8.02;;;;;;;10.53;68.05;101630.16;5013003;28;20060;-53
2021/11/09 11:18:55;;;;;;;14.38;8.48;;;;;;;10.63;67.92;101629.00;5008301;28;20046;-53
2021/11/09 11:21:26;;;;;;;15.88;8.02;;;;;;;10.63;67.49;101620.19;5018395;28;20049;-54
2021/11/09 11:23:53;;;;;;;19.75;8.77;;;;;;;10.68;67.87;101624.44;5018840;28;20060;-54
2021/11/09 11:26:21;;;;;;;18.67;8.93;;;;;;;10.70;68.18;101617.34;5017233;28;20050;-52
2021/11/09 11:28:51;;;;;;;17.50;8.88;;;;;;;10.73;68.05;101621.66;5008814;28;20090;-53
2021/11/09 11:31:19;;;;;;;17.60;8.88;;;;;;;10.78;68.19;101619.75;5019631;28;20517;-53
2021/11/09 11:33:50;;;;;;;18.00;8.48;;;;;;;10.82;67.66;101614.31;5012525;28;20475;-53
2021/11/09 11:36:16;;;;;;;12.73;8.68;;;;;;;10.88;67.21;101615.91;5017388;28;20037;-53
2021/11/09 11:38:49;;;;;;;13.57;8.50;;;;;;;10.93;67.75;101610.50;5021649;28;20533;-51
2021/11/09 11:41:16;;;;;;;16.95;8.75;;;;;;;11.01;67.30;101611.16;5020987;28;20041;-53
2021/11/09 11:43:42;;;;;;;16.00;7.85;;;;;;;11.07;67.06;101608.31;5015811;28;20053;-53
2021/11/09 11:46:16;;;;;;;14.23;8.27;;;;;;;11.15;67.01;101598.34;5017166;28;20051;-52
2021/11/09 11:49:06;;;;;;;14.60;7.70;;;;;;;11.31;64.36;101604.94;5016046;28;20041;-50
2021/11/09 11:51:36;;;;;;;10.88;5.43;;;;;;;11.25;62.00;101597.16;5018873;28;20411;-53
2021/11/09 11:54:03;;;;;;;9.55;4.65;;;;;;;11.22;61.38;101600.75;5017516;28;20071;-53
2021/11/09 11:56:51;;;;;;;8.80;4.50;;;;;;;11.16;61.02;101584.19;5012666;28;20042;-52
2021/11/09 11:59:23;;;;;;;10.82;4.22;;;;;;;11.07;60.65;101582.66;5010923;28;20495;-53
2021/11/09 12:01:54;;;;;;;9.18;4.95;;;;;;;11.15;60.86;101585.97;5016576;28;20052;-54
2021/11/09 12:04:54;;;;;;;7.25;4.72;;;;;;;11.35;60.18;101579.16;5012693;28;20057;-53
2021/11/09 12:07:41;;;;;;;9.27;4.50;;;;;;;11.34;60.35;101575.63;5011573;28;20038;-53
2021/11/09 12:10:09;;;;;;;9.27;5.13;;;;;;;11.42;60.34;101576.28;5012201;28;20064;-52
2021/11/09 12:12:36;;;;;;;8.93;5.10;;;;;;;11.49;61.14;101569.84;5010236;28;20510;-54
2021/11/09 12:15:05;;;;;;;12.13;6.65;;;;;;;11.50;58.92;101563.63;5011580;28;20037;-53
2021/11/09 12:17:42;;;;;;;8.27;5.03;;;;;;;11.57;59.46;101554.56;5008015;28;20061;-53
2021/11/09 12:20:09;;;;;;;10.48;5.20;;;;;;;11.76;59.57;101559.31;4993942;28;20045;-53
2021/11/09 12:22:52;;;;;;;6.20;4.50;;;;;;;11.87;57.28;101543.88;5012960;28;20072;-58
2021/11/09 12:25:21;;;;;;;10.60;4.25;;;;;;;11.92;57.03;101539.28;5006403;28;20427;-53
2021/11/09 12:27:54;;;;;;;6.50;3.63;;;;;;;11.99;55.79;101546.09;5007102;28;20612;-53
2021/11/09 12:30:33;;;;;;;6.60;3.42;;;;;;;12.15;55.18;101541.13;5015542;28;20045;-51
2021/11/09 12:33:27;;;;;;;6.43;3.58;;;;;;;12.37;54.03;101542.09;5011319;28;20054;-53
2021/11/09 12:36:10;;;;;;;7.00;3.30;;;;;;;12.58;52.90;101529.84;5010509;28;20081;-54
2021/11/09 12:38:41;;;;;;;6.80;3.20;;;;;;;12.84;52.29;101524.41;5005667;28;20491;-51
2021/11/09 12:41:24;;;;;;;5.25;2.97;;;;;;;13.01;51.29;101518.41;5010759;28;20090;-54
2021/11/09 12:43:57;;;;;;;5.65;2.80;;;;;;;12.91;49.94;101517.91;5014499;28;20538;-52
2021/11/09 12:48:57;;;;;;;5.70;2.53;;;;;;;12.81;49.75;101513.88;5017743;28;20049;-52
2021/11/09 12:51:33;;;;;;;5.82;2.85;;;;;;;12.82;50.20;101504.97;5013425;28;20049;-53
2021/11/09 12:54:11;;;;;;;5.35;2.35;;;;;;;12.90;49.29;101510.88;5012610;28;20046;-52
2021/11/09 12:56:52;;;;;;;6.78;2.78;;;;;;;12.91;49.08;101501.06;5014995;28;20060;-51
2021/11/09 13:09:51;;;;;;;4.28;2.65;;;;;;;12.61;51.20;101480.06;5019342;28;20049;-52
2021/11/09 13:12:31;;;;;;;8.25;3.17;;;;;;;12.37;52.06;101465.06;5014532;28;20467;-52
2021/11/09 13:15:05;;;;;;;5.13;3.05;;;;;;;12.34;52.32;101482.91;5019722;28;20046;-55
2021/11/09 13:17:46;;;;;;;4.82;3.00;;;;;;;12.24;53.14;101469.97;5014496;28;20041;-52
2021/11/09 13:20:24;;;;;;;6.63;2.78;;;;;;;12.09;53.79;101467.88;5023138;28;20065;-54
2021/11/09 13:22:58;;;;;;;6.88;3.60;;;;;;;12.00;54.98;101473.50;5017680;28;20049;-51
2021/11/09 13:25:37;;;;;;;5.57;3.00;;;;;;;11.93;54.93;101472.00;5022831;28;20073;-51
2021/11/09 13:28:13;;;;;;;5.47;3.10;;;;;;;11.85;55.56;101477.56;5007782;28;20499;-51
2021/11/09 13:30:51;;;;;;;5.55;3.05;;;;;;;11.82;56.19;101480.31;5020764;28;20060;-52
2021/11/09 13:33:20;;;;;;;4.50;2.88;;;;;;;11.76;56.72;101483.22;5022827;28;20077;-52
2021/11/09 13:35:47;;;;;;;7.18;3.65;;;;;;;11.71;56.59;101476.28;5021063;28;20096;-52
2021/11/09 13:38:49;;;;;;;6.32;3.50;;;;;;;11.67;56.76;101477.31;5010988;28;20149;-54
2021/11/09 13:41:28;;;;;;;7.30;2.95;;;;;;;11.63;57.37;101478.34;5014735;28;20049;-52
2021/11/09 13:43:58;;;;;;;6.10;3.63;;;;;;;11.64;57.59;101478.31;5020045;28;20052;-52
2021/11/09 13:46:31;;;;;;;6.13;4.07;;;;;;;11.70;57.39;101479.84;5007448;28;20045;-52
2021/11/09 13:49:07;;;;;;;10.05;3.40;;;;;;;11.69;56.91;101478.13;5010823;28;20069;-53
2021/11/09 13:51:47;;;;;;;8.32;3.33;;;;;;;11.60;56.88;101474.88;5019273;28;20038;-53
2021/11/09 13:54:24;;;;;;;6.13;3.50;;;;;;;11.52;57.35;101468.09;5018740;28;20156;-53
2021/11/09 13:56:53;;;;;;;8.80;4.03;;;;;;;11.43;58.49;101469.28;5017580;28;20041;-51
2021/11/09 13:59:28;;;;;;;5.82;3.58;;;;;;;11.43;57.88;101474.56;5015063;28;20042;-53
2021/11/09 14:02:14;;;;;;;5.03;2.90;;;;;;;11.39;57.84;101469.41;5021685;28;20348;-51
2021/11/09 14:18:12;;;;;;;3.28;2.08;;;;;;;11.33;54.08;101457.25;5012396;28;20057;-53